createdAt,value
2022-08-08T00:02:31.122Z,17.60
2022-08-08T00:05:43.306Z,17.53
2022-08-08T00:08:52.375Z,17.40
2022-08-08T00:12:08.151Z,17.45
2022-08-08T00:15:17.611Z,17.52
2022-08-08T00:18:36.273Z,17.44
2022-08-08T00:21:43.812Z,17.44
2022-08-08T00:24:52.071Z,17.45
2022-08-08T00:27:57.803Z,17.36
2022-08-08T00:32:20.909Z,17.27
2022-08-08T00:35:04.251Z,17.13
2022-08-08T00:38:51.501Z,17.15
2022-08-08T00:42:09.213Z,17.08
2022-08-08T00:45:48.058Z,17.06
2022-08-08T00:49:22.123Z,17.05
2022-08-08T00:52:43.264Z,17.06
2022-08-08T00:56:09.210Z,16.99
2022-08-08T00:59:54.958Z,16.99
2022-08-08T01:04:00.837Z,16.98
2022-08-08T01:07:34.572Z,17.04
2022-08-08T01:11:21.212Z,17.07
2022-08-08T01:14:54.269Z,17.12
2022-08-08T01:18:53.462Z,17.05
2022-08-08T01:22:34.795Z,17.20
2022-08-08T01:25:42.983Z,17.19
2022-08-08T01:29:16.631Z,17.31
2022-08-08T01:33:00.734Z,17.34
2022-08-08T01:36:24.392Z,17.30
2022-08-08T01:39:34.650Z,17.26
2022-08-08T01:42:42.585Z,17.20
2022-08-08T01:45:56.662Z,17.12
2022-08-08T01:49:10.963Z,17.05
2022-08-08T01:53:04.100Z,16.98
2022-08-08T01:56:30.523Z,16.97
2022-08-08T02:00:02.014Z,16.91
2022-08-08T02:03:57.897Z,16.81
2022-08-08T02:07:06.337Z,16.85
2022-08-08T02:10:45.927Z,16.76
2022-08-08T02:13:58.081Z,16.77
2022-08-08T02:17:18.050Z,16.76
2022-08-08T02:21:01.822Z,16.71
2022-08-08T02:24:11.783Z,16.67
2022-08-08T02:27:23.623Z,16.67
2022-08-08T02:30:28.564Z,16.66
2022-08-08T02:34:09.271Z,16.69
2022-08-08T02:38:05.684Z,16.63
2022-08-08T02:41:58.746Z,16.61
2022-08-08T02:45:51.487Z,16.58
2022-08-08T02:49:35.866Z,16.59
2022-08-08T02:52:53.921Z,16.56
2022-08-08T02:56:23.857Z,16.55
2022-08-08T02:59:57.080Z,16.51
2022-08-08T03:05:00.908Z,16.49
2022-08-08T03:07:41.653Z,16.52
2022-08-08T03:11:03.063Z,16.55
2022-08-08T03:15:56.483Z,16.52
2022-08-08T03:18:09.459Z,16.62
2022-08-08T03:21:16.472Z,16.65
2022-08-08T03:24:20.707Z,16.66
2022-08-08T03:27:42.058Z,16.60
2022-08-08T03:30:49.007Z,16.72
2022-08-08T03:33:56.548Z,16.73
2022-08-08T03:37:20.036Z,16.77
2022-08-08T03:40:29.369Z,16.76
2022-08-08T03:43:38.732Z,16.82
2022-08-08T03:46:50.716Z,16.69
2022-08-08T03:50:02.249Z,16.78
2022-08-08T03:53:15.538Z,16.83
2022-08-08T03:56:31.521Z,16.81
2022-08-08T04:00:02.543Z,16.82
2022-08-08T04:03:14.349Z,16.92
2022-08-08T04:06:22.176Z,16.90
2022-08-08T04:09:25.413Z,16.97
2022-08-08T04:12:28.579Z,17.03
2022-08-08T04:15:38.736Z,17.16
2022-08-08T04:18:44.868Z,17.29
2022-08-08T04:21:54.889Z,17.43
2022-08-08T04:24:59.062Z,18.87
2022-08-08T04:28:36.640Z,20.53
2022-08-08T04:31:56.603Z,21.44
2022-08-08T04:34:55.575Z,21.57
2022-08-08T04:38:33.563Z,22.57
2022-08-08T04:41:37.422Z,21.80
2022-08-08T04:44:40.752Z,22.01
2022-08-08T04:47:47.239Z,21.07
2022-08-08T04:50:56.105Z,20.43
2022-08-08T04:58:22.645Z,19.32
2022-08-08T05:01:25.356Z,19.55
2022-08-08T05:04:38.144Z,19.33
2022-08-08T05:07:42.915Z,19.23
2022-08-08T05:10:48.183Z,19.33
2022-08-08T05:13:58.398Z,19.59
2022-08-08T05:17:08.738Z,19.55
2022-08-08T05:20:40.630Z,19.55
2022-08-08T05:24:04.134Z,19.53
2022-08-08T05:27:41.577Z,19.38
2022-08-08T05:30:49.160Z,19.44
2022-08-08T05:33:57.494Z,19.22
2022-08-08T05:37:00.298Z,19.18
2022-08-08T05:44:51.526Z,18.97
2022-08-08T05:48:00.747Z,19.16
2022-08-08T05:51:15.832Z,19.57
2022-08-08T05:54:51.034Z,19.78
2022-08-08T05:58:05.119Z,19.39
2022-08-08T06:01:14.692Z,19.33
2022-08-08T06:04:37.297Z,19.31
2022-08-08T06:07:47.203Z,19.45
2022-08-08T06:10:55.113Z,19.60
2022-08-08T06:13:58.787Z,19.59
2022-08-08T06:17:04.022Z,19.78
2022-08-08T06:20:49.593Z,20.02
2022-08-08T06:24:03.672Z,20.30
2022-08-08T06:27:11.191Z,20.29
2022-08-08T06:30:48.981Z,20.22
2022-08-08T06:34:25.529Z,20.57
2022-08-08T06:37:29.167Z,20.90
2022-08-08T06:40:48.592Z,20.94
2022-08-08T06:43:58.556Z,20.83
2022-08-08T06:47:09.174Z,20.77
2022-08-08T06:50:17.670Z,20.54
2022-08-08T06:53:50.816Z,20.35
2022-08-08T06:57:07.063Z,20.29
2022-08-08T07:00:12.809Z,20.41
2022-08-08T07:04:35.034Z,20.84
2022-08-08T07:06:57.274Z,21.72
2022-08-08T07:10:08.084Z,21.83
2022-08-08T07:13:25.110Z,21.74
2022-08-08T07:16:51.027Z,21.80
2022-08-08T07:20:04.814Z,21.85
2022-08-08T07:23:22.451Z,22.25
2022-08-08T07:26:35.704Z,22.37
2022-08-08T07:29:59.773Z,22.09
2022-08-08T07:33:06.556Z,21.88
2022-08-08T07:36:13.461Z,21.65
2022-08-08T07:39:29.763Z,21.85
2022-08-08T07:42:49.840Z,22.46
2022-08-08T07:46:18.047Z,22.59
2022-08-08T07:49:16.198Z,22.84
2022-08-08T07:52:23.204Z,23.11
2022-08-08T07:55:36.554Z,22.62
2022-08-08T07:58:49.983Z,22.91
2022-08-08T08:02:35.825Z,22.65
2022-08-08T08:05:33.496Z,22.54
2022-08-08T08:08:52.181Z,22.64
2022-08-08T08:12:00.109Z,22.87
2022-08-08T08:15:09.576Z,23.20
2022-08-08T08:18:17.485Z,23.30
2022-08-08T08:21:52.459Z,23.63
2022-08-08T08:25:42.918Z,23.33
2022-08-08T08:28:46.560Z,23.53
2022-08-08T08:31:54.058Z,23.49
2022-08-08T08:35:03.484Z,23.28
2022-08-08T08:38:17.876Z,23.98
2022-08-08T08:41:30.942Z,23.78
2022-08-08T08:44:33.706Z,24.11
2022-08-08T08:47:44.712Z,24.00
2022-08-08T08:50:53.366Z,24.75
2022-08-08T08:54:00.925Z,24.79
2022-08-08T08:57:15.919Z,24.58
2022-08-08T09:00:22.513Z,24.30
2022-08-08T09:03:45.495Z,24.46
2022-08-08T09:06:51.566Z,24.65
2022-08-08T09:09:58.195Z,24.60
2022-08-08T09:13:14.707Z,24.81
2022-08-08T09:16:19.411Z,25.29
2022-08-08T09:21:56.919Z,25.45
2022-08-08T09:22:44.997Z,25.56
2022-08-08T09:26:00.842Z,25.81
2022-08-08T09:29:09.670Z,25.96
2022-08-08T09:32:19.470Z,25.79
2022-08-08T09:35:32.197Z,25.81
2022-08-08T09:38:54.358Z,25.74
2022-08-08T09:42:20.301Z,25.94
2022-08-08T09:45:55.407Z,25.76
2022-08-08T09:48:55.313Z,25.75
2022-08-08T09:52:07.399Z,25.70
2022-08-08T09:55:12.862Z,25.72
2022-08-08T09:58:27.600Z,25.83
2022-08-08T10:01:59.139Z,25.91
2022-08-08T10:05:31.378Z,26.16
2022-08-08T10:08:44.102Z,26.34
2022-08-08T10:12:26.718Z,26.24
2022-08-08T10:15:18.237Z,26.31
2022-08-08T10:18:28.573Z,26.71
2022-08-08T10:21:50.218Z,26.92
2022-08-08T10:25:00.029Z,26.27
2022-08-08T10:28:04.355Z,26.51
2022-08-08T10:31:46.913Z,27.15
2022-08-08T10:34:57.104Z,26.92
2022-08-08T10:38:05.775Z,26.25
2022-08-08T10:41:22.388Z,26.20
2022-08-08T10:44:36.307Z,26.60
2022-08-08T10:47:42.957Z,26.17
2022-08-08T10:50:45.525Z,26.36
2022-08-08T10:53:57.791Z,26.85
2022-08-08T10:57:05.718Z,27.11
2022-08-08T11:00:13.000Z,27.19
2022-08-08T11:03:18.328Z,27.61
2022-08-08T11:06:20.264Z,27.55
2022-08-08T11:09:22.951Z,27.30
2022-08-08T11:12:24.996Z,27.74
2022-08-08T11:15:31.259Z,27.60
2022-08-08T11:18:37.369Z,28.16
2022-08-08T11:21:55.279Z,28.07
2022-08-08T11:25:02.771Z,27.26
2022-08-08T11:28:30.503Z,26.98
2022-08-08T11:31:48.614Z,27.22
2022-08-08T11:35:10.572Z,27.51
2022-08-08T11:38:39.275Z,27.66
2022-08-08T11:41:42.233Z,27.39
2022-08-08T11:44:45.933Z,27.28
2022-08-08T11:48:04.644Z,26.95
2022-08-08T11:51:39.200Z,27.06
2022-08-08T11:54:38.118Z,26.99
2022-08-08T11:57:46.750Z,27.06
2022-08-08T12:00:56.482Z,26.94
2022-08-08T12:03:59.754Z,27.26
2022-08-08T12:07:07.913Z,27.01
2022-08-08T12:10:23.536Z,27.39
2022-08-08T12:13:37.780Z,27.38
2022-08-08T12:16:53.411Z,27.10
2022-08-08T12:19:58.303Z,27.18
2022-08-08T12:23:00.382Z,26.93
2022-08-08T12:26:10.006Z,26.89
2022-08-08T12:29:25.886Z,26.91
2022-08-08T12:32:49.711Z,26.90
2022-08-08T12:35:53.444Z,26.84
2022-08-08T12:38:55.938Z,26.83
2022-08-08T12:42:01.800Z,26.75
2022-08-08T12:45:53.615Z,26.61
2022-08-08T12:48:37.093Z,26.44
2022-08-08T12:51:59.032Z,26.36
2022-08-08T12:55:09.446Z,26.12
2022-08-08T12:58:19.426Z,25.94
2022-08-08T13:01:37.588Z,25.79
2022-08-08T13:04:51.198Z,25.74
2022-08-08T13:08:03.044Z,26.10
2022-08-08T13:11:20.630Z,26.18
2022-08-08T13:14:38.010Z,25.95
2022-08-08T13:17:54.046Z,25.78
2022-08-08T13:21:04.584Z,25.85
2022-08-08T13:24:09.172Z,25.56
2022-08-08T13:27:30.023Z,25.50
2022-08-08T13:30:38.413Z,25.00
2022-08-08T13:33:42.118Z,25.07
2022-08-08T13:36:45.538Z,25.03
2022-08-08T13:39:53.493Z,24.97
2022-08-08T13:43:01.476Z,24.85
2022-08-08T13:46:26.384Z,24.65
2022-08-08T13:50:38.840Z,24.46
2022-08-08T13:52:55.115Z,24.34
2022-08-08T13:56:02.262Z,24.22
2022-08-08T13:59:04.995Z,24.40
2022-08-08T14:02:35.078Z,24.44
2022-08-08T14:05:57.703Z,24.43
2022-08-08T14:09:25.609Z,23.85
2022-08-08T14:12:28.029Z,23.81
2022-08-08T14:15:39.715Z,23.65
2022-08-08T14:18:56.627Z,23.36
2022-08-08T14:21:59.383Z,23.28
2022-08-08T14:25:07.721Z,23.34
2022-08-08T14:28:10.226Z,23.30
2022-08-08T14:31:20.249Z,23.26
2022-08-08T14:34:29.678Z,23.52
2022-08-08T14:37:43.301Z,23.63
2022-08-08T14:41:18.635Z,23.68
2022-08-08T14:44:39.269Z,23.81
2022-08-08T14:47:52.201Z,23.83
2022-08-08T14:51:04.644Z,23.91
2022-08-08T14:54:11.455Z,24.03
2022-08-08T14:57:16.463Z,24.15
2022-08-08T15:00:19.150Z,24.38
2022-08-08T15:03:21.632Z,24.48
2022-08-08T15:06:27.192Z,24.38
2022-08-08T15:09:30.637Z,24.44
2022-08-08T15:12:34.969Z,24.41
2022-08-08T15:16:02.393Z,24.19
2022-08-08T15:18:59.277Z,24.17
2022-08-08T15:22:01.933Z,24.15
2022-08-08T15:25:08.771Z,24.21
2022-08-08T15:28:33.625Z,23.84
2022-08-08T15:32:03.835Z,23.72
2022-08-08T15:35:01.642Z,23.57
2022-08-08T15:38:12.817Z,23.40
2022-08-08T15:41:15.497Z,23.71
2022-08-08T15:44:19.852Z,23.76
2022-08-08T15:47:22.793Z,23.78
2022-08-08T15:50:24.734Z,23.82
2022-08-08T15:53:40.572Z,23.80
2022-08-08T15:56:50.455Z,23.71
2022-08-08T16:00:05.862Z,23.87
2022-08-08T16:03:23.125Z,23.79
2022-08-08T16:06:28.491Z,23.76
2022-08-08T16:13:03.376Z,23.67
2022-08-08T16:13:21.203Z,23.71
2022-08-08T16:16:17.831Z,23.45
2022-08-08T16:19:24.220Z,23.57
2022-08-08T16:22:30.327Z,23.31
2022-08-08T16:25:46.095Z,23.42
2022-08-08T16:28:55.521Z,23.41
2022-08-08T16:31:57.613Z,23.39
2022-08-08T16:35:03.359Z,23.27
2022-08-08T16:38:08.687Z,23.21
2022-08-08T16:41:20.549Z,23.07
2022-08-08T16:44:28.080Z,22.96
2022-08-08T16:47:41.783Z,23.00
2022-08-08T16:50:44.612Z,23.10
2022-08-08T16:55:19.333Z,23.10
2022-08-08T16:57:23.681Z,23.19
2022-08-08T17:00:31.340Z,23.04
2022-08-08T17:03:47.501Z,22.94
2022-08-08T17:06:55.605Z,23.02
2022-08-08T17:09:57.991Z,22.98
2022-08-08T17:13:00.318Z,22.88
2022-08-08T17:16:03.929Z,22.79
2022-08-08T17:19:06.546Z,22.62
2022-08-08T17:22:10.805Z,22.61
2022-08-08T17:25:17.851Z,22.58
2022-08-08T17:28:34.456Z,22.62
2022-08-08T17:31:46.359Z,22.25
2022-08-08T17:35:53.912Z,22.38
2022-08-08T17:38:15.305Z,22.18
2022-08-08T17:41:17.391Z,22.31
2022-08-08T17:44:32.516Z,22.12
2022-08-08T17:47:40.480Z,22.29
2022-08-08T17:50:44.010Z,21.88
2022-08-08T17:53:46.601Z,21.79
2022-08-08T17:57:01.223Z,21.73
2022-08-08T18:00:13.160Z,21.61
2022-08-08T18:03:22.904Z,21.63
2022-08-08T18:06:31.335Z,21.54
2022-08-08T18:09:37.999Z,21.48
2022-08-08T18:12:44.459Z,21.52
2022-08-08T18:15:59.904Z,21.49
2022-08-08T18:19:07.239Z,21.48
2022-08-08T18:22:49.773Z,21.28
2022-08-08T18:25:37.381Z,21.40
2022-08-08T18:28:54.665Z,21.29
2022-08-08T18:31:59.223Z,21.24
2022-08-08T18:35:01.211Z,21.25
2022-08-08T18:38:03.915Z,21.11
2022-08-08T18:41:19.723Z,21.22
2022-08-08T18:44:42.502Z,21.04
2022-08-08T18:47:58.238Z,21.09
2022-08-08T18:51:01.297Z,21.26
2022-08-08T18:54:18.271Z,21.24
2022-08-08T18:57:24.929Z,21.24
2022-08-08T19:00:30.876Z,21.18
2022-08-08T19:04:05.520Z,21.17
2022-08-08T19:06:55.636Z,21.10
2022-08-08T19:10:14.109Z,20.93
2022-08-08T19:13:21.564Z,20.80
2022-08-08T19:16:28.459Z,20.77
2022-08-08T19:19:34.281Z,20.67
2022-08-08T19:22:37.627Z,20.71
2022-08-08T19:26:20.466Z,20.66
2022-08-08T19:29:23.122Z,20.54
2022-08-08T19:32:27.356Z,20.57
2022-08-08T19:35:45.359Z,20.50
2022-08-08T19:38:54.213Z,20.45
2022-08-08T19:41:56.944Z,20.41
2022-08-08T19:45:05.203Z,20.37
2022-08-08T19:48:28.618Z,20.22
2022-08-08T19:51:34.493Z,20.25
2022-08-08T19:54:43.294Z,20.07
2022-08-08T19:57:47.447Z,20.06
2022-08-08T20:00:51.380Z,20.04
2022-08-08T20:04:00.932Z,19.90
2022-08-08T20:08:29.032Z,19.65
2022-08-08T20:10:34.151Z,19.65
2022-08-08T20:14:31.581Z,19.49
2022-08-08T20:16:59.675Z,19.40
2022-08-08T20:20:02.982Z,19.41
2022-08-08T20:23:12.479Z,19.24
2022-08-08T20:26:18.404Z,19.20
2022-08-08T20:29:55.187Z,19.11
2022-08-08T20:32:52.469Z,18.98
2022-08-08T20:35:58.788Z,18.94
2022-08-08T20:39:04.599Z,18.94
2022-08-08T20:42:09.300Z,18.66
2022-08-08T20:45:11.447Z,18.53
2022-08-08T20:48:18.642Z,18.41
2022-08-08T20:51:32.275Z,18.23
2022-08-08T20:54:35.810Z,18.10
2022-08-08T20:57:44.041Z,17.96
2022-08-08T21:00:50.929Z,17.98
2022-08-08T21:03:55.372Z,17.99
2022-08-08T21:07:00.917Z,17.94
2022-08-08T21:10:12.727Z,18.07
2022-08-08T21:13:15.260Z,18.02
2022-08-08T21:16:28.871Z,18.05
2022-08-08T21:19:44.276Z,17.88
2022-08-08T21:22:50.073Z,17.71
2022-08-08T21:25:55.059Z,17.70
2022-08-08T21:29:01.151Z,17.53
2022-08-08T21:32:24.827Z,17.65
2022-08-08T21:36:17.032Z,17.58
2022-08-08T21:38:52.863Z,17.58
2022-08-08T21:41:59.305Z,17.54
2022-08-08T21:45:44.075Z,17.53
2022-08-08T21:48:40.263Z,17.63
2022-08-08T21:54:30.893Z,17.52
2022-08-08T21:55:24.159Z,17.51
2022-08-08T21:58:37.821Z,17.53
2022-08-08T22:01:41.047Z,17.44
2022-08-08T22:04:44.107Z,17.46
2022-08-08T22:07:49.173Z,17.48
2022-08-08T22:10:54.016Z,17.38
2022-08-08T22:13:56.297Z,17.41
2022-08-08T22:17:01.146Z,17.40
2022-08-08T22:20:13.103Z,17.35
2022-08-08T22:23:32.798Z,17.29
2022-08-08T22:27:01.796Z,17.27
2022-08-08T22:30:02.704Z,17.27
2022-08-08T22:33:21.897Z,17.18
2022-08-08T22:36:34.334Z,17.17
2022-08-08T22:39:45.607Z,17.07
2022-08-08T22:42:48.574Z,17.08
2022-08-08T22:45:52.546Z,17.11
2022-08-08T22:48:55.041Z,16.99
2022-08-08T22:51:57.985Z,17.02
2022-08-08T22:55:05.581Z,17.04
2022-08-08T22:58:12.271Z,17.12
2022-08-08T23:01:26.511Z,17.01
2022-08-08T23:04:36.459Z,16.92
2022-08-08T23:07:51.464Z,16.87
2022-08-08T23:11:05.783Z,16.91
2022-08-08T23:14:08.522Z,16.93
2022-08-08T23:17:13.601Z,17.01
2022-08-08T23:20:19.813Z,16.93
2022-08-08T23:23:22.025Z,17.05
2022-08-08T23:26:24.993Z,16.95
2022-08-08T23:29:29.821Z,16.89
2022-08-08T23:32:33.456Z,16.94
2022-08-08T23:35:59.005Z,16.97
2022-08-08T23:38:57.948Z,16.91
2022-08-08T23:42:05.762Z,16.81
2022-08-08T23:45:12.476Z,16.94
2022-08-08T23:49:00.082Z,16.85
2022-08-08T23:51:41.829Z,16.75
2022-08-08T23:54:53.389Z,16.69
2022-08-08T23:58:02.501Z,16.53
